sensor_id;sensor_type;location;lat;lon;timestamp;temperature;humidity
3202;DHT22;34843;48.744;8.958;2023-10-09T00:00:10;10.00;99.90
3202;DHT22;34843;48.744;8.958;2023-10-09T00:02:54;9.90;99.90
3202;DHT22;34843;48.744;8.958;2023-10-09T00:05:20;9.90;99.90
3202;DHT22;34843;48.744;8.958;2023-10-09T00:07:49;9.90;99.90
3202;DHT22;34843;48.744;8.958;2023-10-09T00:10:19;9.90;99.90
3202;DHT22;34843;48.744;8.958;2023-10-09T00:12:47;9.90;99.90
3202;DHT22;34843;48.744;8.958;2023-10-09T00:15:14;9.90;99.90
3202;DHT22;34843;48.744;8.958;2023-10-09T00:17:46;9.90;99.90
3202;DHT22;34843;48.744;8.958;2023-10-09T00:20:14;9.90;99.90
3202;DHT22;34843;48.744;8.958;2023-10-09T00:22:50;10.50;99.90
3202;DHT22;34843;48.744;8.958;2023-10-09T00:25:16;9.90;99.90
3202;DHT22;34843;48.744;8.958;2023-10-09T00:27:49;9.80;99.90
3202;DHT22;34843;48.744;8.958;2023-10-09T00:30:16;9.90;99.90
3202;DHT22;34843;48.744;8.958;2023-10-09T00:32:47;9.80;99.90
3202;DHT22;34843;48.744;8.958;2023-10-09T00:35:26;9.80;99.90
3202;DHT22;34843;48.744;8.958;2023-10-09T00:38:03;9.80;99.90
3202;DHT22;34843;48.744;8.958;2023-10-09T00:40:40;9.80;99.90
3202;DHT22;34843;48.744;8.958;2023-10-09T00:43:15;9.80;99.90
3202;DHT22;34843;48.744;8.958;2023-10-09T00:45:42;9.80;99.90
3202;DHT22;34843;48.744;8.958;2023-10-09T00:48:10;9.80;99.90
3202;DHT22;34843;48.744;8.958;2023-10-09T00:50:39;9.90;99.90
3202;DHT22;34843;48.744;8.958;2023-10-09T00:53:12;9.80;99.90
3202;DHT22;34843;48.744;8.958;2023-10-09T00:55:43;9.80;99.90
3202;DHT22;34843;48.744;8.958;2023-10-09T00:58:21;9.80;99.90
3202;DHT22;34843;48.744;8.958;2023-10-09T01:00:49;9.80;99.90
3202;DHT22;34843;48.744;8.958;2023-10-09T01:03:18;9.80;99.90
3202;DHT22;34843;48.744;8.958;2023-10-09T01:05:58;9.80;99.90
3202;DHT22;34843;48.744;8.958;2023-10-09T01:08:39;9.80;99.90
3202;DHT22;34843;48.744;8.958;2023-10-09T01:13:41;9.80;99.90
3202;DHT22;34843;48.744;8.958;2023-10-09T01:16:17;9.90;99.90
3202;DHT22;34843;48.744;8.958;2023-10-09T01:18:53;9.90;99.90
3202;DHT22;34843;48.744;8.958;2023-10-09T01:21:22;9.90;99.90
3202;DHT22;34843;48.744;8.958;2023-10-09T01:23:50;10.00;99.90
3202;DHT22;34843;48.744;8.958;2023-10-09T01:26:39;10.00;99.90
3202;DHT22;34843;48.744;8.958;2023-10-09T01:29:08;10.00;99.90
3202;DHT22;34843;48.744;8.958;2023-10-09T01:31:54;10.00;99.90
3202;DHT22;34843;48.744;8.958;2023-10-09T01:34:33;10.00;99.90
3202;DHT22;34843;48.744;8.958;2023-10-09T01:37:16;10.00;99.90
3202;DHT22;34843;48.744;8.958;2023-10-09T01:39:52;10.10;99.90
3202;DHT22;34843;48.744;8.958;2023-10-09T01:42:18;10.10;99.90
3202;DHT22;34843;48.744;8.958;2023-10-09T01:44:51;10.10;99.90
3202;DHT22;34843;48.744;8.958;2023-10-09T01:47:17;10.00;99.90
3202;DHT22;34843;48.744;8.958;2023-10-09T01:49:44;10.10;99.90
3202;DHT22;34843;48.744;8.958;2023-10-09T01:52:15;10.20;99.90
3202;DHT22;34843;48.744;8.958;2023-10-09T01:54:50;10.20;99.90
3202;DHT22;34843;48.744;8.958;2023-10-09T01:57:18;10.20;99.90
3202;DHT22;34843;48.744;8.958;2023-10-09T01:59:51;10.30;99.90
3202;DHT22;34843;48.744;8.958;2023-10-09T02:02:19;10.30;99.90
3202;DHT22;34843;48.744;8.958;2023-10-09T02:05:00;10.30;99.90
3202;DHT22;34843;48.744;8.958;2023-10-09T02:07:35;10.40;99.90
3202;DHT22;34843;48.744;8.958;2023-10-09T02:10:13;10.50;99.90
3202;DHT22;34843;48.744;8.958;2023-10-09T02:12:58;10.60;99.90
3202;DHT22;34843;48.744;8.958;2023-10-09T02:15:39;10.60;99.90
3202;DHT22;34843;48.744;8.958;2023-10-09T02:18:15;10.60;99.90
3202;DHT22;34843;48.744;8.958;2023-10-09T02:20:51;10.60;99.90
3202;DHT22;34843;48.744;8.958;2023-10-09T02:23:38;10.60;99.90
3202;DHT22;34843;48.744;8.958;2023-10-09T02:26:13;10.50;99.90
3202;DHT22;34843;48.744;8.958;2023-10-09T02:28:45;10.50;99.90
3202;DHT22;34843;48.744;8.958;2023-10-09T02:31:18;10.50;99.90
3202;DHT22;34843;48.744;8.958;2023-10-09T02:33:47;10.50;99.90
3202;DHT22;34843;48.744;8.958;2023-10-09T02:36:15;10.50;99.90
3202;DHT22;34843;48.744;8.958;2023-10-09T02:38:42;10.50;99.90
3202;DHT22;34843;48.744;8.958;2023-10-09T02:41:08;10.50;99.90
3202;DHT22;34843;48.744;8.958;2023-10-09T02:43:36;10.50;99.90
3202;DHT22;34843;48.744;8.958;2023-10-09T02:46:31;10.60;99.90
3202;DHT22;34843;48.744;8.958;2023-10-09T02:48:58;10.60;99.90
3202;DHT22;34843;48.744;8.958;2023-10-09T02:51:27;10.60;99.90
3202;DHT22;34843;48.744;8.958;2023-10-09T02:53:57;10.60;99.90
3202;DHT22;34843;48.744;8.958;2023-10-09T02:56:27;10.60;99.90
3202;DHT22;34843;48.744;8.958;2023-10-09T02:59:06;10.60;99.90
3202;DHT22;34843;48.744;8.958;2023-10-09T03:01:33;10.60;99.90
3202;DHT22;34843;48.744;8.958;2023-10-09T03:04:00;10.60;99.90
3202;DHT22;34843;48.744;8.958;2023-10-09T03:06:28;10.70;99.90
3202;DHT22;34843;48.744;8.958;2023-10-09T03:08:57;10.70;99.90
3202;DHT22;34843;48.744;8.958;2023-10-09T03:11:23;10.80;99.90
3202;DHT22;34843;48.744;8.958;2023-10-09T03:13:48;10.80;99.90
3202;DHT22;34843;48.744;8.958;2023-10-09T03:16:14;10.70;99.90
3202;DHT22;34843;48.744;8.958;2023-10-09T03:18:41;10.70;99.90
3202;DHT22;34843;48.744;8.958;2023-10-09T03:21:07;10.60;99.90
3202;DHT22;34843;48.744;8.958;2023-10-09T03:23:34;10.60;99.90
3202;DHT22;34843;48.744;8.958;2023-10-09T03:25:59;10.60;99.90
3202;DHT22;34843;48.744;8.958;2023-10-09T03:28:25;10.60;99.90
3202;DHT22;34843;48.744;8.958;2023-10-09T03:30:51;10.60;99.90
3202;DHT22;34843;48.744;8.958;2023-10-09T03:33:18;10.60;99.90
3202;DHT22;34843;48.744;8.958;2023-10-09T03:35:44;10.60;99.90
3202;DHT22;34843;48.744;8.958;2023-10-09T03:38:10;10.60;99.90
3202;DHT22;34843;48.744;8.958;2023-10-09T03:40:44;10.60;99.90
3202;DHT22;34843;48.744;8.958;2023-10-09T03:43:13;10.60;99.90
3202;DHT22;34843;48.744;8.958;2023-10-09T03:45:39;10.60;99.90
3202;DHT22;34843;48.744;8.958;2023-10-09T03:48:18;10.70;99.90
3202;DHT22;34843;48.744;8.958;2023-10-09T03:50:57;10.70;99.90
3202;DHT22;34843;48.744;8.958;2023-10-09T03:53:37;10.70;99.90
3202;DHT22;34843;48.744;8.958;2023-10-09T03:56:06;10.80;99.90
3202;DHT22;34843;48.744;8.958;2023-10-09T03:58:38;10.80;99.90
3202;DHT22;34843;48.744;8.958;2023-10-09T04:01:07;10.90;99.90
3202;DHT22;34843;48.744;8.958;2023-10-09T04:03:36;11.00;99.90
3202;DHT22;34843;48.744;8.958;2023-10-09T04:06:02;11.00;99.90
3202;DHT22;34843;48.744;8.958;2023-10-09T04:08:29;11.00;99.90
3202;DHT22;34843;48.744;8.958;2023-10-09T04:10:55;10.90;99.90
3202;DHT22;34843;48.744;8.958;2023-10-09T04:13:28;10.90;99.90
3202;DHT22;34843;48.744;8.958;2023-10-09T04:16:01;11.00;99.90
3202;DHT22;34843;48.744;8.958;2023-10-09T04:18:35;11.00;99.90
3202;DHT22;34843;48.744;8.958;2023-10-09T04:21:05;11.00;99.90
3202;DHT22;34843;48.744;8.958;2023-10-09T04:24:06;11.00;99.90
3202;DHT22;34843;48.744;8.958;2023-10-09T04:26:48;11.00;99.90
3202;DHT22;34843;48.744;8.958;2023-10-09T04:29:15;11.00;99.90
3202;DHT22;34843;48.744;8.958;2023-10-09T04:31:49;11.00;99.90
3202;DHT22;34843;48.744;8.958;2023-10-09T04:34:21;11.00;99.90
3202;DHT22;34843;48.744;8.958;2023-10-09T04:36:48;11.00;99.90
3202;DHT22;34843;48.744;8.958;2023-10-09T04:39:15;11.00;99.90
3202;DHT22;34843;48.744;8.958;2023-10-09T04:41:51;10.90;99.90
3202;DHT22;34843;48.744;8.958;2023-10-09T04:44:18;11.00;99.90
3202;DHT22;34843;48.744;8.958;2023-10-09T04:46:55;11.00;99.90
3202;DHT22;34843;48.744;8.958;2023-10-09T04:49:33;11.00;99.90
3202;DHT22;34843;48.744;8.958;2023-10-09T04:52:18;11.00;99.90
3202;DHT22;34843;48.744;8.958;2023-10-09T04:55:16;10.90;99.90
3202;DHT22;34843;48.744;8.958;2023-10-09T04:57:46;10.80;99.90
3202;DHT22;34843;48.744;8.958;2023-10-09T05:00:13;10.90;99.90
3202;DHT22;34843;48.744;8.958;2023-10-09T05:03:08;10.90;99.90
3202;DHT22;34843;48.744;8.958;2023-10-09T05:05:38;10.90;99.90
3202;DHT22;34843;48.744;8.958;2023-10-09T05:11:03;10.90;99.90
3202;DHT22;34843;48.744;8.958;2023-10-09T05:13:33;10.90;99.90
3202;DHT22;34843;48.744;8.958;2023-10-09T05:16:21;10.90;99.90
3202;DHT22;34843;48.744;8.958;2023-10-09T05:18:48;10.90;99.90
3202;DHT22;34843;48.744;8.958;2023-10-09T05:21:35;10.80;99.90
3202;DHT22;34843;48.744;8.958;2023-10-09T05:24:04;10.90;99.90
3202;DHT22;34843;48.744;8.958;2023-10-09T05:29:14;10.90;99.90
3202;DHT22;34843;48.744;8.958;2023-10-09T05:32:06;11.00;99.90
3202;DHT22;34843;48.744;8.958;2023-10-09T05:34:38;11.00;99.90
3202;DHT22;34843;48.744;8.958;2023-10-09T05:37:23;11.00;99.90
3202;DHT22;34843;48.744;8.958;2023-10-09T05:39:52;11.10;99.90
3202;DHT22;34843;48.744;8.958;2023-10-09T05:42:28;11.10;99.90
3202;DHT22;34843;48.744;8.958;2023-10-09T05:45:12;11.20;99.90
3202;DHT22;34843;48.744;8.958;2023-10-09T05:47:48;11.20;99.90
3202;DHT22;34843;48.744;8.958;2023-10-09T05:50:22;11.30;99.90
3202;DHT22;34843;48.744;8.958;2023-10-09T05:52:52;11.30;99.90
3202;DHT22;34843;48.744;8.958;2023-10-09T05:55:24;11.40;99.90
3202;DHT22;34843;48.744;8.958;2023-10-09T05:57:54;11.50;99.90
3202;DHT22;34843;48.744;8.958;2023-10-09T06:00:38;11.50;99.90
3202;DHT22;34843;48.744;8.958;2023-10-09T06:03:22;11.60;99.90
3202;DHT22;34843;48.744;8.958;2023-10-09T06:05:52;11.60;99.90
3202;DHT22;34843;48.744;8.958;2023-10-09T06:08:22;11.60;99.90
3202;DHT22;34843;48.744;8.958;2023-10-09T06:10:55;11.60;99.90
3202;DHT22;34843;48.744;8.958;2023-10-09T06:13:40;11.60;99.90
3202;DHT22;34843;48.744;8.958;2023-10-09T06:16:12;11.60;99.90
3202;DHT22;34843;48.744;8.958;2023-10-09T06:19:12;11.60;99.90
3202;DHT22;34843;48.744;8.958;2023-10-09T06:21:52;11.50;99.90
3202;DHT22;34843;48.744;8.958;2023-10-09T06:24:22;11.50;99.90
3202;DHT22;34843;48.744;8.958;2023-10-09T06:26:49;11.50;99.90
3202;DHT22;34843;48.744;8.958;2023-10-09T06:29:23;11.50;99.90
3202;DHT22;34843;48.744;8.958;2023-10-09T06:32:08;11.50;99.90
3202;DHT22;34843;48.744;8.958;2023-10-09T06:34:57;11.60;99.90
3202;DHT22;34843;48.744;8.958;2023-10-09T06:37:40;11.70;99.90
3202;DHT22;34843;48.744;8.958;2023-10-09T06:40:26;11.80;99.90
3202;DHT22;34843;48.744;8.958;2023-10-09T06:43:09;11.80;99.90
3202;DHT22;34843;48.744;8.958;2023-10-09T06:45:40;11.90;99.90
3202;DHT22;34843;48.744;8.958;2023-10-09T06:48:20;12.00;99.90
3202;DHT22;34843;48.744;8.958;2023-10-09T06:51:08;12.10;99.90
3202;DHT22;34843;48.744;8.958;2023-10-09T06:53:50;12.30;99.90
3202;DHT22;34843;48.744;8.958;2023-10-09T06:56:24;12.40;99.90
3202;DHT22;34843;48.744;8.958;2023-10-09T06:59:10;12.50;99.90
3202;DHT22;34843;48.744;8.958;2023-10-09T07:01:50;12.70;99.90
3202;DHT22;34843;48.744;8.958;2023-10-09T07:04:35;12.80;99.90
3202;DHT22;34843;48.744;8.958;2023-10-09T07:07:00;12.90;99.90
3202;DHT22;34843;48.744;8.958;2023-10-09T07:09:27;13.00;99.90
3202;DHT22;34843;48.744;8.958;2023-10-09T07:12:08;13.10;99.90
3202;DHT22;34843;48.744;8.958;2023-10-09T07:14:35;13.20;99.90
3202;DHT22;34843;48.744;8.958;2023-10-09T07:17:03;13.30;99.90
3202;DHT22;34843;48.744;8.958;2023-10-09T07:19:50;13.50;99.90
3202;DHT22;34843;48.744;8.958;2023-10-09T07:22:16;13.70;99.90
3202;DHT22;34843;48.744;8.958;2023-10-09T07:24:49;13.80;99.90
3202;DHT22;34843;48.744;8.958;2023-10-09T07:27:24;14.10;99.90
3202;DHT22;34843;48.744;8.958;2023-10-09T07:30:25;14.20;99.90
3202;DHT22;34843;48.744;8.958;2023-10-09T07:33:04;14.40;99.90
3202;DHT22;34843;48.744;8.958;2023-10-09T07:35:46;14.50;99.90
3202;DHT22;34843;48.744;8.958;2023-10-09T07:38:17;14.60;99.90
3202;DHT22;34843;48.744;8.958;2023-10-09T07:40:50;16.40;99.90
3202;DHT22;34843;48.744;8.958;2023-10-09T07:43:41;14.90;99.90
3202;DHT22;34843;48.744;8.958;2023-10-09T07:46:14;15.00;99.90
3202;DHT22;34843;48.744;8.958;2023-10-09T07:49:03;15.30;99.90
3202;DHT22;34843;48.744;8.958;2023-10-09T07:51:38;15.20;99.90
3202;DHT22;34843;48.744;8.958;2023-10-09T07:54:04;15.30;99.90
3202;DHT22;34843;48.744;8.958;2023-10-09T07:56:38;15.40;99.90
3202;DHT22;34843;48.744;8.958;2023-10-09T07:59:10;15.50;99.90
3202;DHT22;34843;48.744;8.958;2023-10-09T08:01:47;15.60;99.90
3202;DHT22;34843;48.744;8.958;2023-10-09T08:04:23;15.80;99.90
3202;DHT22;34843;48.744;8.958;2023-10-09T08:07:08;15.90;99.90
3202;DHT22;34843;48.744;8.958;2023-10-09T08:09:35;16.20;99.90
3202;DHT22;34843;48.744;8.958;2023-10-09T08:12:36;16.40;99.90
3202;DHT22;34843;48.744;8.958;2023-10-09T08:15:23;16.50;99.90
3202;DHT22;34843;48.744;8.958;2023-10-09T08:18:00;16.60;99.90
3202;DHT22;34843;48.744;8.958;2023-10-09T08:20:44;16.60;99.90
3202;DHT22;34843;48.744;8.958;2023-10-09T08:23:28;16.90;99.90
3202;DHT22;34843;48.744;8.958;2023-10-09T08:26:14;17.00;99.90
3202;DHT22;34843;48.744;8.958;2023-10-09T08:28:44;17.30;99.90
3202;DHT22;34843;48.744;8.958;2023-10-09T08:31:12;17.40;99.90
3202;DHT22;34843;48.744;8.958;2023-10-09T08:33:56;17.50;99.90
3202;DHT22;34843;48.744;8.958;2023-10-09T08:36:25;17.70;99.90
3202;DHT22;34843;48.744;8.958;2023-10-09T08:38:55;17.70;99.90
3202;DHT22;34843;48.744;8.958;2023-10-09T08:41:24;17.70;99.90
3202;DHT22;34843;48.744;8.958;2023-10-09T08:43:56;17.70;99.90
3202;DHT22;34843;48.744;8.958;2023-10-09T08:46:26;17.80;99.90
3202;DHT22;34843;48.744;8.958;2023-10-09T08:48:55;18.00;99.90
3202;DHT22;34843;48.744;8.958;2023-10-09T08:51:20;17.90;99.90
3202;DHT22;34843;48.744;8.958;2023-10-09T08:53:47;17.90;99.90
3202;DHT22;34843;48.744;8.958;2023-10-09T08:56:13;17.80;99.90
3202;DHT22;34843;48.744;8.958;2023-10-09T09:01:17;18.00;99.90
3202;DHT22;34843;48.744;8.958;2023-10-09T09:03:48;18.00;99.90
3202;DHT22;34843;48.744;8.958;2023-10-09T09:06:14;18.20;99.90
3202;DHT22;34843;48.744;8.958;2023-10-09T09:08:40;18.40;99.90
3202;DHT22;34843;48.744;8.958;2023-10-09T09:11:12;18.40;99.90
3202;DHT22;34843;48.744;8.958;2023-10-09T09:13:42;18.70;99.90
3202;DHT22;34843;48.744;8.958;2023-10-09T09:16:17;19.00;99.90
3202;DHT22;34843;48.744;8.958;2023-10-09T09:18:55;19.20;99.90
3202;DHT22;34843;48.744;8.958;2023-10-09T09:21:33;19.20;99.90
3202;DHT22;34843;48.744;8.958;2023-10-09T09:24:07;19.30;99.90
3202;DHT22;34843;48.744;8.958;2023-10-09T09:26:56;19.40;99.90
3202;DHT22;34843;48.744;8.958;2023-10-09T09:32:03;19.60;99.90
3202;DHT22;34843;48.744;8.958;2023-10-09T09:34:51;19.70;99.90
3202;DHT22;34843;48.744;8.958;2023-10-09T09:37:21;19.80;99.90
3202;DHT22;34843;48.744;8.958;2023-10-09T09:39:50;20.10;99.90
3202;DHT22;34843;48.744;8.958;2023-10-09T09:42:17;20.20;99.90
3202;DHT22;34843;48.744;8.958;2023-10-09T09:44:44;20.30;99.90
3202;DHT22;34843;48.744;8.958;2023-10-09T09:47:14;20.50;99.90
3202;DHT22;34843;48.744;8.958;2023-10-09T09:49:49;20.60;99.90
3202;DHT22;34843;48.744;8.958;2023-10-09T09:52:16;20.90;99.90
3202;DHT22;34843;48.744;8.958;2023-10-09T09:54:43;21.00;99.90
3202;DHT22;34843;48.744;8.958;2023-10-09T09:57:13;21.00;99.90
3202;DHT22;34843;48.744;8.958;2023-10-09T09:59:41;21.10;99.90
3202;DHT22;34843;48.744;8.958;2023-10-09T10:02:18;21.20;99.90
3202;DHT22;34843;48.744;8.958;2023-10-09T10:04:46;21.30;99.90
3202;DHT22;34843;48.744;8.958;2023-10-09T10:07:15;21.40;99.90
3202;DHT22;34843;48.744;8.958;2023-10-09T10:09:42;21.60;99.90
3202;DHT22;34843;48.744;8.958;2023-10-09T10:12:10;21.70;99.90
3202;DHT22;34843;48.744;8.958;2023-10-09T10:15:03;21.70;99.90
3202;DHT22;34843;48.744;8.958;2023-10-09T10:18:07;21.90;99.90
3202;DHT22;34843;48.744;8.958;2023-10-09T10:21:25;22.20;99.90
3202;DHT22;34843;48.744;8.958;2023-10-09T10:24:01;22.30;99.90
3202;DHT22;34843;48.744;8.958;2023-10-09T10:26:36;22.40;99.90
3202;DHT22;34843;48.744;8.958;2023-10-09T10:29:20;22.60;99.90
3202;DHT22;34843;48.744;8.958;2023-10-09T10:31:52;22.60;99.90
3202;DHT22;34843;48.744;8.958;2023-10-09T10:34:20;22.70;99.90
3202;DHT22;34843;48.744;8.958;2023-10-09T10:36:50;22.80;99.90
3202;DHT22;34843;48.744;8.958;2023-10-09T10:39:25;22.90;99.90
3202;DHT22;34843;48.744;8.958;2023-10-09T10:42:09;23.00;99.90
3202;DHT22;34843;48.744;8.958;2023-10-09T10:44:54;23.00;99.90
3202;DHT22;34843;48.744;8.958;2023-10-09T10:47:26;23.00;99.90
3202;DHT22;34843;48.744;8.958;2023-10-09T10:50:03;23.20;99.90
3202;DHT22;34843;48.744;8.958;2023-10-09T10:53:14;23.50;99.90
3202;DHT22;34843;48.744;8.958;2023-10-09T10:55:54;23.70;99.90
3202;DHT22;34843;48.744;8.958;2023-10-09T10:58:21;24.00;99.90
3202;DHT22;34843;48.744;8.958;2023-10-09T11:00:54;24.00;99.90
3202;DHT22;34843;48.744;8.958;2023-10-09T11:03:23;24.20;99.90
3202;DHT22;34843;48.744;8.958;2023-10-09T11:06:09;24.10;99.90
3202;DHT22;34843;48.744;8.958;2023-10-09T11:08:44;24.00;99.90
3202;DHT22;34843;48.744;8.958;2023-10-09T11:11:34;23.90;99.90
3202;DHT22;34843;48.744;8.958;2023-10-09T11:14:10;24.10;99.90
3202;DHT22;34843;48.744;8.958;2023-10-09T11:16:49;24.10;99.90
3202;DHT22;34843;48.744;8.958;2023-10-09T11:19:19;24.10;99.90
3202;DHT22;34843;48.744;8.958;2023-10-09T11:21:55;24.40;99.90
3202;DHT22;34843;48.744;8.958;2023-10-09T11:24:29;24.60;99.90
3202;DHT22;34843;48.744;8.958;2023-10-09T11:27:06;24.70;99.90
3202;DHT22;34843;48.744;8.958;2023-10-09T11:29:35;24.80;99.90
3202;DHT22;34843;48.744;8.958;2023-10-09T11:34:49;24.70;99.90
3202;DHT22;34843;48.744;8.958;2023-10-09T11:37:19;24.80;99.90
3202;DHT22;34843;48.744;8.958;2023-10-09T11:40:04;24.80;99.90
3202;DHT22;34843;48.744;8.958;2023-10-09T11:42:48;24.70;99.90
3202;DHT22;34843;48.744;8.958;2023-10-09T11:45:25;24.60;99.90
3202;DHT22;34843;48.744;8.958;2023-10-09T11:47:55;24.50;99.90
3202;DHT22;34843;48.744;8.958;2023-10-09T11:50:44;24.40;99.90
3202;DHT22;34843;48.744;8.958;2023-10-09T11:53:41;24.30;99.90
3202;DHT22;34843;48.744;8.958;2023-10-09T11:56:09;24.10;99.90
3202;DHT22;34843;48.744;8.958;2023-10-09T11:58:39;24.10;99.90
3202;DHT22;34843;48.744;8.958;2023-10-09T12:01:11;24.20;99.90
3202;DHT22;34843;48.744;8.958;2023-10-09T12:03:41;24.20;99.90
3202;DHT22;34843;48.744;8.958;2023-10-09T12:06:08;24.10;99.90
3202;DHT22;34843;48.744;8.958;2023-10-09T12:08:37;24.00;99.90
3202;DHT22;34843;48.744;8.958;2023-10-09T12:11:05;24.10;99.90
3202;DHT22;34843;48.744;8.958;2023-10-09T12:13:35;24.10;99.90
3202;DHT22;34843;48.744;8.958;2023-10-09T12:16:00;24.30;99.90
3202;DHT22;34843;48.744;8.958;2023-10-09T12:18:26;24.40;99.90
3202;DHT22;34843;48.744;8.958;2023-10-09T12:20:53;24.50;99.90
3202;DHT22;34843;48.744;8.958;2023-10-09T12:23:28;24.80;99.90
3202;DHT22;34843;48.744;8.958;2023-10-09T12:25:53;25.10;99.90
3202;DHT22;34843;48.744;8.958;2023-10-09T12:28:22;25.40;99.90
3202;DHT22;34843;48.744;8.958;2023-10-09T12:30:49;25.70;99.90
3202;DHT22;34843;48.744;8.958;2023-10-09T12:33:16;25.90;99.90
3202;DHT22;34843;48.744;8.958;2023-10-09T12:35:42;25.80;99.50
3202;DHT22;34843;48.744;8.958;2023-10-09T12:38:11;25.90;99.90
3202;DHT22;34843;48.744;8.958;2023-10-09T12:40:38;26.10;99.90
3202;DHT22;34843;48.744;8.958;2023-10-09T12:43:06;26.40;99.90
3202;DHT22;34843;48.744;8.958;2023-10-09T12:45:41;26.60;99.90
3202;DHT22;34843;48.744;8.958;2023-10-09T12:48:06;26.80;99.90
3202;DHT22;34843;48.744;8.958;2023-10-09T12:50:35;26.90;99.00
3202;DHT22;34843;48.744;8.958;2023-10-09T12:53:07;26.80;97.20
3202;DHT22;34843;48.744;8.958;2023-10-09T12:55:40;26.60;96.80
3202;DHT22;34843;48.744;8.958;2023-10-09T12:58:10;26.50;95.70
3202;DHT22;34843;48.744;8.958;2023-10-09T13:00:40;26.60;95.80
3202;DHT22;34843;48.744;8.958;2023-10-09T13:03:10;26.50;95.60
3202;DHT22;34843;48.744;8.958;2023-10-09T13:05:46;26.30;95.30
3202;DHT22;34843;48.744;8.958;2023-10-09T13:08:20;26.00;94.50
3202;DHT22;34843;48.744;8.958;2023-10-09T13:10:50;25.90;94.90
3202;DHT22;34843;48.744;8.958;2023-10-09T13:13:29;25.60;94.90
3202;DHT22;34843;48.744;8.958;2023-10-09T13:16:16;25.30;94.70
3202;DHT22;34843;48.744;8.958;2023-10-09T13:18:49;24.80;93.80
3202;DHT22;34843;48.744;8.958;2023-10-09T13:21:26;24.80;94.30
3202;DHT22;34843;48.744;8.958;2023-10-09T13:23:52;24.80;94.80
3202;DHT22;34843;48.744;8.958;2023-10-09T13:26:20;24.80;95.20
3202;DHT22;34843;48.744;8.958;2023-10-09T13:28:56;24.50;94.70
3202;DHT22;34843;48.744;8.958;2023-10-09T13:31:24;24.70;95.20
3202;DHT22;34843;48.744;8.958;2023-10-09T13:33:56;24.70;95.40
3202;DHT22;34843;48.744;8.958;2023-10-09T13:36:27;24.60;92.40
3202;DHT22;34843;48.744;8.958;2023-10-09T13:38:57;24.40;92.40
3202;DHT22;34843;48.744;8.958;2023-10-09T13:41:23;24.40;93.40
3202;DHT22;34843;48.744;8.958;2023-10-09T13:43:55;24.30;93.10
3202;DHT22;34843;48.744;8.958;2023-10-09T13:46:22;24.20;93.90
3202;DHT22;34843;48.744;8.958;2023-10-09T13:48:49;24.00;93.00
3202;DHT22;34843;48.744;8.958;2023-10-09T13:51:15;24.00;93.40
3202;DHT22;34843;48.744;8.958;2023-10-09T13:53:44;23.90;93.40
3202;DHT22;34843;48.744;8.958;2023-10-09T13:56:20;23.90;93.30
3202;DHT22;34843;48.744;8.958;2023-10-09T13:58:50;24.00;94.70
3202;DHT22;34843;48.744;8.958;2023-10-09T14:01:17;24.10;93.80
3202;DHT22;34843;48.744;8.958;2023-10-09T14:03:55;24.20;94.10
3202;DHT22;34843;48.744;8.958;2023-10-09T14:06:21;24.40;94.50
3202;DHT22;34843;48.744;8.958;2023-10-09T14:09:00;24.90;94.70
3202;DHT22;34843;48.744;8.958;2023-10-09T14:11:31;24.90;94.40
3202;DHT22;34843;48.744;8.958;2023-10-09T14:13:57;25.00;93.30
3202;DHT22;34843;48.744;8.958;2023-10-09T14:16:26;25.20;93.60
3202;DHT22;34843;48.744;8.958;2023-10-09T14:18:58;25.30;92.60
3202;DHT22;34843;48.744;8.958;2023-10-09T14:21:26;25.30;93.30
3202;DHT22;34843;48.744;8.958;2023-10-09T14:23:58;25.40;93.10
3202;DHT22;34843;48.744;8.958;2023-10-09T14:26:25;25.50;92.70
3202;DHT22;34843;48.744;8.958;2023-10-09T14:28:52;25.80;92.60
3202;DHT22;34843;48.744;8.958;2023-10-09T14:31:18;25.80;92.80
3202;DHT22;34843;48.744;8.958;2023-10-09T14:33:51;25.80;93.10
3202;DHT22;34843;48.744;8.958;2023-10-09T14:36:19;25.90;94.60
3202;DHT22;34843;48.744;8.958;2023-10-09T14:38:44;25.80;93.80
3202;DHT22;34843;48.744;8.958;2023-10-09T14:41:12;25.90;95.30
3202;DHT22;34843;48.744;8.958;2023-10-09T14:43:39;25.80;93.70
3202;DHT22;34843;48.744;8.958;2023-10-09T14:46:05;25.70;94.50
3202;DHT22;34843;48.744;8.958;2023-10-09T14:48:37;25.70;96.00
3202;DHT22;34843;48.744;8.958;2023-10-09T14:51:03;25.60;95.10
3202;DHT22;34843;48.744;8.958;2023-10-09T14:53:35;25.50;94.80
3202;DHT22;34843;48.744;8.958;2023-10-09T14:56:01;25.30;95.30
3202;DHT22;34843;48.744;8.958;2023-10-09T14:58:29;25.20;94.70
3202;DHT22;34843;48.744;8.958;2023-10-09T15:00:56;25.00;94.70
3202;DHT22;34843;48.744;8.958;2023-10-09T15:03:22;25.00;93.90
3202;DHT22;34843;48.744;8.958;2023-10-09T15:05:48;24.90;93.00
3202;DHT22;34843;48.744;8.958;2023-10-09T15:08:14;24.80;93.30
3202;DHT22;34843;48.744;8.958;2023-10-09T15:10:50;24.80;93.40
3202;DHT22;34843;48.744;8.958;2023-10-09T15:13:17;24.60;93.70
3202;DHT22;34843;48.744;8.958;2023-10-09T15:15:43;24.50;93.10
3202;DHT22;34843;48.744;8.958;2023-10-09T15:18:09;24.40;92.90
3202;DHT22;34843;48.744;8.958;2023-10-09T15:20:38;24.40;93.30
3202;DHT22;34843;48.744;8.958;2023-10-09T15:23:05;24.30;94.30
3202;DHT22;34843;48.744;8.958;2023-10-09T15:25:31;24.30;94.80
3202;DHT22;34843;48.744;8.958;2023-10-09T15:27:57;24.20;95.00
3202;DHT22;34843;48.744;8.958;2023-10-09T15:30:23;24.10;94.30
3202;DHT22;34843;48.744;8.958;2023-10-09T15:32:48;24.10;94.60
3202;DHT22;34843;48.744;8.958;2023-10-09T15:35:17;24.00;95.00
3202;DHT22;34843;48.744;8.958;2023-10-09T15:37:44;24.00;95.20
3202;DHT22;34843;48.744;8.958;2023-10-09T15:40:11;24.00;95.20
3202;DHT22;34843;48.744;8.958;2023-10-09T15:42:42;24.00;95.40
3202;DHT22;34843;48.744;8.958;2023-10-09T15:45:08;23.90;95.60
3202;DHT22;34843;48.744;8.958;2023-10-09T15:47:34;23.90;96.10
3202;DHT22;34843;48.744;8.958;2023-10-09T15:50:02;23.90;96.40
3202;DHT22;34843;48.744;8.958;2023-10-09T15:52:29;23.80;96.80
3202;DHT22;34843;48.744;8.958;2023-10-09T15:54:54;23.80;97.20
3202;DHT22;34843;48.744;8.958;2023-10-09T15:57:20;23.70;97.90
3202;DHT22;34843;48.744;8.958;2023-10-09T15:59:47;23.60;99.00
3202;DHT22;34843;48.744;8.958;2023-10-09T16:02:14;23.40;99.70
3202;DHT22;34843;48.744;8.958;2023-10-09T16:04:40;23.30;99.90
3202;DHT22;34843;48.744;8.958;2023-10-09T16:07:06;23.20;99.90
3202;DHT22;34843;48.744;8.958;2023-10-09T16:09:33;23.00;99.90
3202;DHT22;34843;48.744;8.958;2023-10-09T16:12:05;22.80;99.90
3202;DHT22;34843;48.744;8.958;2023-10-09T16:14:31;22.70;99.90
3202;DHT22;34843;48.744;8.958;2023-10-09T16:16:56;22.50;99.90
3202;DHT22;34843;48.744;8.958;2023-10-09T16:19:22;22.40;99.90
3202;DHT22;34843;48.744;8.958;2023-10-09T16:21:53;22.20;99.90
3202;DHT22;34843;48.744;8.958;2023-10-09T16:24:18;22.10;99.90
3202;DHT22;34843;48.744;8.958;2023-10-09T16:26:45;21.90;99.90
3202;DHT22;34843;48.744;8.958;2023-10-09T16:29:17;21.60;99.90
3202;DHT22;34843;48.744;8.958;2023-10-09T16:31:42;21.50;99.90
3202;DHT22;34843;48.744;8.958;2023-10-09T16:34:08;21.30;99.90
3202;DHT22;34843;48.744;8.958;2023-10-09T16:36:34;21.20;99.90
3202;DHT22;34843;48.744;8.958;2023-10-09T16:39:01;20.80;99.90